Time;durP1;ratioP1;P1;durP2;ratioP2;P2;SDS_P1;SDS_P2;PMS_P1;PMS_P2;Temp;Humidity;BMP_temperature;BMP_pressure;BME280_temperature;BME280_humidity;BME280_pressure;Samples;Min_cycle;Max_cycle;Signal;HPM_P1;HPM_P2
2023/07/12 00:00:18;;;;;;;0.73;0.68;;;24.00;99.90;;;;;;4999246;28;45118;-63
2023/07/12 00:02:45;;;;;;;1.33;0.65;;;24.00;99.90;;;;;;4981774;28;45268;-64
2023/07/12 00:05:11;;;;;;;0.70;0.70;;;24.00;99.90;;;;;;4985932;28;46581;-63
2023/07/12 00:07:38;;;;;;;1.05;0.77;;;24.00;99.90;;;;;;4981475;28;45291;-64
2023/07/12 00:10:16;;;;;;;0.70;0.70;;;24.00;99.90;;;;;;4981379;28;45133;-63
2023/07/12 00:12:44;;;;;;;1.33;0.80;;;24.00;99.90;;;;;;5009561;28;45407;-64
2023/07/12 00:15:16;;;;;;;1.05;0.70;;;24.00;99.90;;;;;;4992334;28;47544;-64
2023/07/12 00:17:43;;;;;;;0.77;0.60;;;24.00;99.90;;;;;;4983355;28;45070;-64
2023/07/12 00:20:22;;;;;;;0.60;0.60;;;24.00;99.90;;;;;;4991032;28;45100;-63
2023/07/12 00:22:50;;;;;;;0.73;0.70;;;24.00;99.90;;;;;;4989075;28;45161;-63
2023/07/12 00:25:19;;;;;;;0.75;0.60;;;24.00;99.90;;;;;;4986256;28;47051;-63
2023/07/12 00:27:48;;;;;;;1.17;0.98;;;24.00;99.90;;;;;;4984039;28;45148;-63
2023/07/12 00:30:19;;;;;;;0.70;0.70;;;24.00;99.90;;;;;;4980268;28;45132;-63
2023/07/12 00:32:48;;;;;;;1.40;0.63;;;24.00;99.90;;;;;;4981143;28;45341;-63
2023/07/12 00:35:18;;;;;;;0.77;0.50;;;24.00;99.90;;;;;;4982064;28;46609;-63
2023/07/12 00:37:45;;;;;;;0.85;0.55;;;23.90;99.90;;;;;;4981233;28;45235;-64
2023/07/12 00:40:42;;;;;;;0.90;0.70;;;24.00;99.90;;;;;;4980365;28;45326;-63
2023/07/12 00:43:19;;;;;;;1.45;0.57;;;24.00;99.90;;;;;;5031954;28;45459;-63
2023/07/12 00:45:49;;;;;;;0.50;0.50;;;24.00;99.90;;;;;;4981106;28;47962;-63
2023/07/12 00:48:15;;;;;;;1.10;0.60;;;24.00;99.90;;;;;;4980824;28;45204;-63
2023/07/12 00:50:43;;;;;;;0.52;0.50;;;24.00;99.90;;;;;;4980503;28;45195;-64
2023/07/12 00:53:17;;;;;;;1.05;0.60;;;24.00;99.90;;;;;;5005873;28;45423;-64
2023/07/12 00:56:03;;;;;;;0.88;0.50;;;24.00;99.90;;;;;;4994456;28;48210;-63
2023/07/12 00:58:36;;;;;;;0.80;0.63;;;24.00;99.90;;;;;;4992000;28;45129;-63
2023/07/12 01:01:04;;;;;;;0.73;0.50;;;24.00;99.90;;;;;;4983243;28;45201;-63
2023/07/12 01:03:36;;;;;;;1.05;0.60;;;24.00;99.90;;;;;;4971625;28;45226;-63
2023/07/12 01:06:03;;;;;;;0.45;0.45;;;24.00;99.90;;;;;;4977941;28;47723;-63
2023/07/12 01:08:31;;;;;;;0.82;0.60;;;24.00;99.90;;;;;;4977888;28;45185;-63
2023/07/12 01:11:01;;;;;;;0.47;0.47;;;24.00;99.90;;;;;;4979214;28;45157;-63
2023/07/12 01:13:29;;;;;;;0.93;0.60;;;24.00;99.90;;;;;;5009262;28;45445;-63
2023/07/12 01:16:00;;;;;;;0.40;0.40;;;24.00;99.90;;;;;;4988784;28;46466;-63
2023/07/12 01:18:27;;;;;;;0.70;0.60;;;24.00;99.90;;;;;;4978576;28;45256;-63
2023/07/12 01:21:07;;;;;;;0.40;0.40;;;24.00;99.90;;;;;;4980037;28;45324;-63
2023/07/12 01:23:34;;;;;;;0.43;0.43;;;24.00;99.90;;;;;;4982377;28;45192;-63
2023/07/12 01:26:20;;;;;;;0.40;0.40;;;24.00;99.90;;;;;;5000058;28;45291;-63
2023/07/12 01:28:49;;;;;;;0.50;0.50;;;24.00;99.90;;;;;;4974596;28;45246;-64
2023/07/12 01:31:16;;;;;;;1.30;0.60;;;24.00;99.90;;;;;;4978866;28;45385;-63
2023/07/12 01:33:43;;;;;;;0.60;0.52;;;23.90;99.90;;;;;;4980678;28;45485;-64
2023/07/12 01:36:12;;;;;;;0.45;0.40;;;24.00;99.90;;;;;;4976925;28;46394;-63
2023/07/12 01:38:38;;;;;;;1.45;0.40;;;24.00;99.90;;;;;;4979989;28;45290;-63
2023/07/12 01:41:05;;;;;;;0.63;0.50;;;24.00;99.90;;;;;;4979217;28;45162;-63
2023/07/12 01:43:33;;;;;;;0.52;0.30;;;24.00;99.90;;;;;;4994295;28;45424;-63
2023/07/12 01:45:59;;;;;;;0.82;0.40;;;23.90;99.90;;;;;;5002252;28;45196;-63
2023/07/12 01:48:26;;;;;;;0.60;0.50;;;24.00;99.90;;;;;;5018551;28;45194;-63
2023/07/12 01:50:53;;;;;;;0.93;0.60;;;24.00;99.90;;;;;;4978485;28;45420;-63
2023/07/12 01:53:21;;;;;;;0.43;0.40;;;23.90;99.90;;;;;;4979185;28;45284;-64
2023/07/12 01:55:48;;;;;;;0.45;0.45;;;24.00;99.90;;;;;;4978277;28;47519;-63
2023/07/12 01:58:14;;;;;;;1.30;0.60;;;24.00;99.90;;;;;;4978780;28;45125;-63
2023/07/12 02:00:41;;;;;;;1.05;0.60;;;24.00;99.90;;;;;;4978360;28;45136;-63
2023/07/12 02:03:08;;;;;;;1.95;0.60;;;24.00;99.90;;;;;;4975298;28;45314;-64
2023/07/12 02:05:35;;;;;;;0.60;0.50;;;24.00;99.90;;;;;;4979823;28;48006;-63
2023/07/12 02:08:02;;;;;;;0.93;0.60;;;23.90;99.90;;;;;;4979988;28;45159;-63
2023/07/12 02:10:30;;;;;;;0.60;0.40;;;24.00;99.90;;;;;;4979169;28;45061;-62
2023/07/12 02:12:57;;;;;;;0.88;0.50;;;24.00;99.90;;;;;;4979884;28;45140;-63
2023/07/12 02:15:23;;;;;;;0.68;0.60;;;24.00;99.90;;;;;;4979138;28;46078;-63
2023/07/12 02:17:50;;;;;;;0.40;0.40;;;23.90;99.90;;;;;;4978380;28;45271;-63
2023/07/12 02:20:17;;;;;;;0.50;0.40;;;23.90;99.90;;;;;;4978946;28;45240;-63
2023/07/12 02:22:46;;;;;;;0.43;0.43;;;24.00;99.90;;;;;;4982211;28;45568;-63
2023/07/12 02:25:13;;;;;;;0.55;0.50;;;23.90;99.90;;;;;;4979827;28;46551;-63
2023/07/12 02:27:44;;;;;;;0.50;0.50;;;23.90;99.90;;;;;;4999346;27;45189;-64
2023/07/12 02:30:13;;;;;;;0.77;0.50;;;23.90;99.90;;;;;;4978358;28;45287;-63
2023/07/12 02:32:40;;;;;;;0.57;0.47;;;23.90;99.90;;;;;;5010399;28;45391;-63
2023/07/12 02:35:07;;;;;;;0.55;0.50;;;23.90;99.90;;;;;;4979228;28;46172;-63
2023/07/12 02:37:34;;;;;;;0.50;0.50;;;23.90;99.90;;;;;;4979102;28;45200;-63
2023/07/12 02:40:01;;;;;;;0.73;0.50;;;23.90;99.90;;;;;;4979251;28;45117;-63
2023/07/12 02:42:28;;;;;;;0.63;0.63;;;23.90;99.90;;;;;;4978958;28;45211;-63
2023/07/12 02:44:56;;;;;;;1.00;0.65;;;23.90;99.90;;;;;;4982221;28;47452;-63
2023/07/12 02:47:23;;;;;;;0.90;0.40;;;23.90;99.90;;;;;;4988582;28;45453;-63
2023/07/12 02:49:49;;;;;;;0.50;0.50;;;24.00;99.90;;;;;;4995468;28;45226;-62
2023/07/12 02:52:17;;;;;;;0.57;0.57;;;24.00;99.90;;;;;;4984006;28;45426;-64
2023/07/12 02:54:44;;;;;;;0.70;0.55;;;24.00;99.90;;;;;;4981421;28;45324;-64
2023/07/12 02:57:12;;;;;;;0.90;0.50;;;23.90;99.90;;;;;;4979374;28;45149;-63
2023/07/12 02:59:39;;;;;;;0.50;0.50;;;23.90;99.90;;;;;;4974783;28;45180;-63
2023/07/12 03:02:09;;;;;;;0.55;0.50;;;23.90;99.90;;;;;;4989944;28;45420;-63
2023/07/12 03:04:36;;;;;;;1.25;0.70;;;23.90;99.90;;;;;;4971011;28;45211;-63
2023/07/12 03:07:03;;;;;;;0.88;0.50;;;23.90;99.90;;;;;;4978553;28;45142;-62
2023/07/12 03:09:30;;;;;;;0.85;0.60;;;23.90;99.90;;;;;;4978065;28;45058;-64
2023/07/12 03:11:57;;;;;;;0.47;0.47;;;23.90;99.90;;;;;;4972771;28;45306;-63
2023/07/12 03:14:25;;;;;;;2.90;0.65;;;23.90;99.90;;;;;;4976993;28;46571;-63
2023/07/12 03:16:52;;;;;;;1.45;0.63;;;23.90;99.90;;;;;;4978620;28;45117;-62
2023/07/12 03:19:22;;;;;;;0.73;0.57;;;23.90;99.90;;;;;;4984947;28;45259;-63
2023/07/12 03:21:49;;;;;;;2.75;0.52;;;23.90;99.90;;;;;;4972239;28;45105;-63
2023/07/12 03:24:16;;;;;;;0.70;0.50;;;23.90;99.90;;;;;;4977101;28;45179;-63
2023/07/12 03:26:42;;;;;;;0.70;0.50;;;23.90;99.90;;;;;;4986149;28;45136;-63
2023/07/12 03:29:09;;;;;;;1.23;0.73;;;23.90;99.90;;;;;;4977528;28;45122;-63
2023/07/12 03:31:36;;;;;;;1.30;0.68;;;23.90;99.90;;;;;;4978012;28;45088;-63
2023/07/12 03:34:03;;;;;;;0.55;0.40;;;23.80;99.90;;;;;;4980982;28;47432;-63
2023/07/12 03:36:32;;;;;;;1.33;0.68;;;23.90;99.90;;;;;;4976295;28;45118;-63
2023/07/12 03:39:00;;;;;;;0.40;0.40;;;23.80;99.90;;;;;;4981024;28;45128;-63
2023/07/12 03:41:27;;;;;;;1.13;0.70;;;23.80;99.90;;;;;;4981764;28;45133;-63
2023/07/12 03:43:54;;;;;;;0.65;0.60;;;23.80;99.90;;;;;;4986116;28;46661;-63
2023/07/12 03:46:20;;;;;;;1.02;0.70;;;23.80;99.90;;;;;;4981785;28;45145;-63
2023/07/12 03:48:47;;;;;;;0.70;0.50;;;23.80;99.90;;;;;;4980729;28;45271;-63
2023/07/12 03:51:17;;;;;;;0.68;0.50;;;23.80;99.90;;;;;;4982955;28;45279;-62
2023/07/12 03:53:46;;;;;;;0.52;0.40;;;23.80;99.90;;;;;;4981623;28;47553;-62
2023/07/12 03:56:13;;;;;;;1.42;0.60;;;23.80;99.90;;;;;;4981794;28;45250;-63
2023/07/12 03:58:41;;;;;;;1.02;0.60;;;23.80;99.90;;;;;;4982394;28;45262;-63
2023/07/12 04:01:10;;;;;;;0.77;0.60;;;23.80;99.90;;;;;;4982345;28;45224;-63
2023/07/12 04:03:37;;;;;;;0.65;0.47;;;23.80;99.90;;;;;;4981367;28;46066;-63
2023/07/12 04:06:05;;;;;;;0.43;0.43;;;23.80;99.90;;;;;;4980697;28;45102;-63
2023/07/12 04:08:33;;;;;;;0.50;0.50;;;23.80;99.90;;;;;;4973544;28;45217;-63
2023/07/12 04:11:02;;;;;;;0.90;0.45;;;23.80;99.90;;;;;;4979822;28;45380;-63
2023/07/12 04:13:29;;;;;;;1.08;0.60;;;23.80;99.90;;;;;;4980922;28;46336;-63
2023/07/12 04:15:59;;;;;;;0.50;0.50;;;23.80;99.90;;;;;;4981223;28;45286;-63
2023/07/12 04:18:27;;;;;;;0.52;0.43;;;23.90;99.90;;;;;;4981605;28;45240;-64
2023/07/12 04:20:55;;;;;;;0.90;0.50;;;23.80;99.90;;;;;;4974831;28;45236;-64
2023/07/12 04:23:22;;;;;;;0.47;0.30;;;23.80;99.90;;;;;;4984719;28;45221;-63
2023/07/12 04:25:57;;;;;;;0.50;0.50;;;23.80;99.90;;;;;;4980279;28;45140;-63
2023/07/12 04:28:26;;;;;;;0.50;0.50;;;23.80;99.90;;;;;;4981728;28;45256;-63
2023/07/12 04:30:53;;;;;;;1.27;0.50;;;23.80;99.90;;;;;;5024853;28;45313;-62
2023/07/12 04:33:19;;;;;;;1.00;0.57;;;23.80;99.90;;;;;;4980497;28;46067;-63
2023/07/12 04:35:46;;;;;;;0.70;0.50;;;23.80;99.90;;;;;;4978139;28;45269;-63
2023/07/12 04:38:13;;;;;;;0.60;0.50;;;23.80;99.90;;;;;;4975090;28;45279;-63
2023/07/12 04:40:40;;;;;;;3.17;0.55;;;23.80;99.90;;;;;;4978752;28;45206;-63
2023/07/12 04:43:07;;;;;;;0.73;0.50;;;23.80;99.90;;;;;;4982254;28;47578;-63
2023/07/12 04:45:35;;;;;;;0.75;0.50;;;23.80;99.90;;;;;;4979017;28;46469;-63
2023/07/12 04:48:02;;;;;;;0.65;0.50;;;23.80;99.90;;;;;;4991714;27;45188;-63
2023/07/12 04:50:29;;;;;;;0.50;0.43;;;23.80;99.90;;;;;;4979791;28;45144;-64
2023/07/12 04:52:56;;;;;;;1.27;0.60;;;23.80;99.90;;;;;;4980860;28;46413;-62
2023/07/12 04:55:28;;;;;;;3.92;0.63;;;23.80;99.90;;;;;;4980651;28;45710;-62
2023/07/12 04:57:55;;;;;;;1.50;0.70;;;23.80;99.90;;;;;;4980800;28;45091;-63
2023/07/12 05:00:23;;;;;;;1.55;0.73;;;23.80;99.90;;;;;;4992557;28;45136;-62
2023/07/12 05:02:51;;;;;;;0.65;0.50;;;23.80;99.90;;;;;;4980486;28;46603;-62
2023/07/12 05:05:18;;;;;;;0.93;0.40;;;23.80;99.90;;;;;;4974868;28;45172;-62
2023/07/12 05:07:45;;;;;;;2.75;0.63;;;23.80;99.90;;;;;;4981251;28;45344;-62
2023/07/12 05:10:12;;;;;;;1.83;0.60;;;23.80;99.90;;;;;;4979820;28;45279;-63
2023/07/12 05:12:40;;;;;;;1.00;0.60;;;23.80;99.90;;;;;;4980538;28;47097;-63
2023/07/12 05:15:09;;;;;;;1.20;0.52;;;23.80;99.90;;;;;;4980392;28;45099;-63
2023/07/12 05:17:36;;;;;;;4.65;0.70;;;23.80;99.90;;;;;;4978477;28;45172;-62
2023/07/12 05:20:05;;;;;;;0.90;0.60;;;23.80;99.90;;;;;;4980577;28;45253;-63
2023/07/12 05:22:32;;;;;;;0.77;0.57;;;23.80;99.90;;;;;;4980078;28;45442;-62
2023/07/12 05:24:59;;;;;;;1.02;0.70;;;23.80;99.90;;;;;;4976948;28;45269;-63
2023/07/12 05:27:26;;;;;;;0.55;0.50;;;23.80;99.90;;;;;;4979589;28;45213;-63
2023/07/12 05:29:53;;;;;;;1.50;0.50;;;23.70;99.90;;;;;;4978422;28;45302;-64
2023/07/12 05:32:20;;;;;;;2.05;0.60;;;23.80;99.90;;;;;;4975098;28;48054;-64
2023/07/12 05:34:47;;;;;;;0.88;0.50;;;23.80;99.90;;;;;;4977015;28;45063;-63
2023/07/12 05:37:16;;;;;;;1.45;0.65;;;23.80;99.90;;;;;;5002512;28;45283;-63
2023/07/12 05:39:43;;;;;;;0.70;0.57;;;23.80;99.90;;;;;;4975188;28;45146;-64
2023/07/12 05:42:09;;;;;;;0.77;0.50;;;23.80;99.90;;;;;;4979973;28;48308;-65
2023/07/12 05:44:36;;;;;;;2.55;0.68;;;23.80;99.90;;;;;;4980146;28;45272;-63
2023/07/12 05:47:03;;;;;;;0.93;0.63;;;23.80;99.90;;;;;;4980143;28;45194;-63
2023/07/12 05:49:30;;;;;;;0.85;0.43;;;23.80;99.90;;;;;;4979087;28;45200;-63
2023/07/12 05:51:59;;;;;;;0.85;0.50;;;23.80;99.90;;;;;;4988037;28;47548;-63
2023/07/12 05:54:27;;;;;;;1.48;0.60;;;23.80;99.90;;;;;;5015448;28;45309;-63
2023/07/12 05:56:54;;;;;;;3.45;0.60;;;23.80;99.90;;;;;;5026475;28;45229;-63
2023/07/12 05:59:22;;;;;;;1.25;0.60;;;23.80;99.90;;;;;;4983055;28;45552;-63
2023/07/12 06:01:48;;;;;;;0.52;0.43;;;23.80;99.90;;;;;;4985975;28;47264;-63
2023/07/12 06:04:15;;;;;;;0.55;0.45;;;23.80;99.90;;;;;;4994481;28;45226;-64
2023/07/12 06:06:42;;;;;;;1.23;0.55;;;23.80;99.90;;;;;;4980214;28;45157;-63
2023/07/12 06:09:09;;;;;;;1.70;0.70;;;23.80;99.90;;;;;;4998779;28;45410;-63
2023/07/12 06:11:37;;;;;;;2.30;0.60;;;23.80;99.90;;;;;;4992208;28;46160;-64
2023/07/12 06:14:04;;;;;;;0.80;0.60;;;23.80;99.90;;;;;;4977661;28;45277;-63
2023/07/12 06:16:31;;;;;;;0.80;0.50;;;23.80;99.90;;;;;;4982549;28;45243;-63
2023/07/12 06:18:57;;;;;;;1.83;0.70;;;23.80;99.90;;;;;;4979106;28;45108;-64
2023/07/12 06:21:24;;;;;;;1.75;0.60;;;23.80;99.90;;;;;;4991769;28;47168;-62
2023/07/12 06:23:51;;;;;;;0.80;0.50;;;23.80;99.90;;;;;;5009452;28;45317;-63
2023/07/12 06:26:17;;;;;;;0.57;0.40;;;23.80;99.90;;;;;;4982019;28;45214;-63
2023/07/12 06:28:45;;;;;;;0.90;0.43;;;23.80;99.90;;;;;;5007092;28;45457;-63
2023/07/12 06:31:12;;;;;;;1.80;0.60;;;23.80;99.90;;;;;;4986406;28;48378;-64
2023/07/12 06:33:39;;;;;;;0.93;0.60;;;23.80;99.90;;;;;;4979967;28;45593;-63
2023/07/12 06:36:06;;;;;;;1.75;0.82;;;23.80;99.90;;;;;;5021819;28;45357;-64
2023/07/12 06:38:33;;;;;;;3.20;0.47;;;23.80;99.90;;;;;;4995971;28;45178;-64
2023/07/12 06:41:00;;;;;;;1.30;0.60;;;23.80;99.90;;;;;;4991840;28;48376;-63
2023/07/12 06:43:27;;;;;;;1.23;0.60;;;23.80;99.90;;;;;;4990206;28;45224;-64
2023/07/12 06:45:55;;;;;;;1.48;0.40;;;23.70;99.90;;;;;;4997308;28;45096;-63
2023/07/12 06:48:22;;;;;;;1.40;0.50;;;23.70;99.90;;;;;;4979710;28;45269;-63
2023/07/12 06:50:49;;;;;;;1.55;0.60;;;23.80;99.90;;;;;;5012444;28;46055;-63
2023/07/12 06:53:16;;;;;;;0.98;0.60;;;23.70;99.90;;;;;;4979282;28;45326;-63
2023/07/12 06:55:44;;;;;;;1.90;0.60;;;23.70;99.90;;;;;;4997706;28;45340;-64
2023/07/12 06:58:11;;;;;;;0.90;0.60;;;23.70;99.90;;;;;;4977991;28;45310;-64
2023/07/12 07:00:40;;;;;;;1.88;0.50;;;23.80;99.90;;;;;;4987357;28;47962;-63
2023/07/12 07:03:09;;;;;;;0.50;0.40;;;23.80;99.90;;;;;;4982875;28;45172;-62
2023/07/12 07:05:37;;;;;;;3.60;0.60;;;23.70;99.90;;;;;;4998457;28;45378;-63
2023/07/12 07:08:05;;;;;;;2.35;0.50;;;23.80;99.90;;;;;;4979507;28;45142;-63
2023/07/12 07:10:32;;;;;;;1.17;0.63;;;23.70;99.90;;;;;;4982115;28;47478;-63
2023/07/12 07:12:58;;;;;;;1.30;0.50;;;23.80;99.90;;;;;;4982054;28;45134;-63
2023/07/12 07:15:25;;;;;;;1.17;0.70;;;23.80;99.90;;;;;;4981893;28;45182;-63
2023/07/12 07:17:53;;;;;;;1.60;0.68;;;23.80;99.90;;;;;;4981036;28;45323;-63
2023/07/12 07:20:22;;;;;;;1.10;0.70;;;23.80;99.90;;;;;;4988367;28;47205;-63
2023/07/12 07:22:49;;;;;;;1.02;0.60;;;23.80;99.90;;;;;;4982267;28;45276;-62
2023/07/12 07:25:16;;;;;;;1.17;0.47;;;23.80;99.90;;;;;;4981598;28;45216;-62
2023/07/12 07:27:43;;;;;;;1.33;0.60;;;23.80;99.90;;;;;;4982464;28;45175;-63
2023/07/12 07:30:11;;;;;;;2.08;0.60;;;23.80;99.90;;;;;;4980202;28;47962;-62
2023/07/12 07:32:37;;;;;;;1.40;0.70;;;23.70;99.90;;;;;;4974047;28;45789;-62
2023/07/12 07:35:05;;;;;;;5.03;0.75;;;23.80;99.90;;;;;;4982090;28;45403;-63
2023/07/12 07:37:33;;;;;;;1.48;0.73;;;23.80;99.90;;;;;;4982041;28;45298;-62
2023/07/12 07:40:00;;;;;;;1.20;0.68;;;23.80;99.90;;;;;;4981045;28;45169;-64
2023/07/12 07:42:26;;;;;;;1.10;0.57;;;23.80;99.90;;;;;;4981540;28;45205;-63
2023/07/12 07:44:53;;;;;;;0.95;0.50;;;23.80;99.90;;;;;;4981671;28;45139;-63
2023/07/12 07:47:21;;;;;;;1.10;0.57;;;23.80;99.90;;;;;;4981884;28;45288;-62
2023/07/12 07:49:48;;;;;;;0.63;0.60;;;23.80;99.90;;;;;;4980904;28;45331;-63
2023/07/12 07:52:14;;;;;;;1.85;0.68;;;23.80;99.80;;;;;;4981496;28;45223;-62
2023/07/12 07:54:42;;;;;;;0.57;0.40;;;23.70;99.70;;;;;;4982083;28;45244;-64
2023/07/12 07:57:09;;;;;;;1.52;0.50;;;23.80;99.60;;;;;;4981519;28;45608;-63
2023/07/12 07:59:36;;;;;;;1.27;0.75;;;23.80;99.30;;;;;;4980241;28;47114;-63
2023/07/12 08:02:03;;;;;;;0.75;0.55;;;23.80;99.50;;;;;;4981427;28;45678;-63
2023/07/12 08:04:31;;;;;;;3.80;0.73;;;23.70;99.40;;;;;;4981715;28;45293;-63
2023/07/12 08:06:57;;;;;;;2.42;0.80;;;23.80;99.50;;;;;;4981825;28;45257;-63
2023/07/12 08:09:24;;;;;;;2.25;0.85;;;23.70;99.60;;;;;;4980302;28;45351;-62
2023/07/12 08:11:52;;;;;;;1.48;0.70;;;23.70;99.60;;;;;;4980537;28;45190;-63
2023/07/12 08:14:20;;;;;;;2.45;0.88;;;23.70;99.50;;;;;;4980385;28;45343;-62
2023/07/12 08:16:48;;;;;;;1.52;1.00;;;23.70;99.60;;;;;;4975769;28;45420;-64
2023/07/12 08:19:15;;;;;;;3.13;1.13;;;23.80;99.60;;;;;;4979216;28;47284;-63
2023/07/12 08:21:42;;;;;;;1.73;0.70;;;23.80;99.40;;;;;;4980987;28;45381;-63
2023/07/12 08:24:08;;;;;;;1.90;0.80;;;23.80;99.40;;;;;;4980681;28;45255;-63
2023/07/12 08:26:36;;;;;;;1.17;0.63;;;23.70;99.40;;;;;;4981718;28;45272;-63
2023/07/12 08:29:05;;;;;;;1.75;0.80;;;23.70;99.40;;;;;;4980622;28;45349;-63
2023/07/12 08:31:32;;;;;;;1.77;0.93;;;23.80;99.40;;;;;;4980339;28;45287;-63
2023/07/12 08:33:58;;;;;;;2.20;0.50;;;23.80;99.40;;;;;;4981011;28;45157;-63
2023/07/12 08:36:25;;;;;;;2.55;0.77;;;23.80;99.20;;;;;;4981461;28;45177;-62
2023/07/12 08:38:52;;;;;;;2.95;0.80;;;23.80;99.10;;;;;;4980710;28;46232;-63
2023/07/12 08:41:21;;;;;;;2.00;0.60;;;23.70;98.90;;;;;;4980326;28;45157;-62
2023/07/12 08:43:48;;;;;;;3.53;1.15;;;23.80;98.90;;;;;;4981155;28;45370;-62
2023/07/12 08:46:21;;;;;;;1.45;0.68;;;23.80;98.80;;;;;;4981283;28;45239;-62
2023/07/12 08:48:52;;;;;;;1.45;0.70;;;23.80;98.90;;;;;;4981011;28;46054;-62
2023/07/12 08:51:26;;;;;;;1.75;0.60;;;23.80;99.00;;;;;;4987892;28;45272;-62
2023/07/12 08:53:54;;;;;;;2.20;0.80;;;23.70;98.90;;;;;;4981026;28;45219;-62
2023/07/12 08:56:21;;;;;;;1.65;0.73;;;23.80;98.90;;;;;;4981181;28;45242;-63
2023/07/12 08:58:50;;;;;;;3.25;0.60;;;23.80;98.70;;;;;;4989696;28;46180;-62
2023/07/12 09:01:37;;;;;;;2.95;1.05;;;23.70;98.40;;;;;;4980219;28;45286;-64
2023/07/12 09:04:23;;;;;;;2.97;0.80;;;23.80;98.30;;;;;;4977871;28;45155;-63
2023/07/12 09:06:51;;;;;;;1.50;0.68;;;23.80;98.20;;;;;;4979745;28;45098;-63
2023/07/12 09:09:18;;;;;;;0.80;0.47;;;23.80;98.20;;;;;;4978644;28;48223;-63
2023/07/12 09:11:46;;;;;;;1.58;0.70;;;23.80;98.00;;;;;;4980849;28;45784;-63
2023/07/12 09:14:16;;;;;;;2.35;0.82;;;23.80;97.80;;;;;;4980927;28;45214;-63
2023/07/12 09:16:46;;;;;;;2.13;0.70;;;23.80;97.90;;;;;;4973822;28;45303;-63
2023/07/12 09:19:15;;;;;;;2.00;0.85;;;23.80;97.90;;;;;;4979262;28;47094;-64
2023/07/12 09:21:46;;;;;;;2.30;0.70;;;23.70;97.70;;;;;;4979424;28;45211;-63
2023/07/12 09:24:15;;;;;;;2.15;0.95;;;23.80;97.80;;;;;;4987570;28;45161;-63
2023/07/12 09:26:42;;;;;;;2.30;0.80;;;23.80;97.70;;;;;;4981031;28;45371;-63
2023/07/12 09:29:21;;;;;;;2.85;0.90;;;23.80;97.60;;;;;;4979518;28;47312;-63
2023/07/12 09:31:51;;;;;;;1.85;0.88;;;23.80;97.70;;;;;;4972269;28;45274;-63
2023/07/12 09:34:21;;;;;;;0.82;0.60;;;23.80;97.50;;;;;;4980675;28;45365;-62
2023/07/12 09:36:55;;;;;;;0.77;0.52;;;23.80;97.50;;;;;;4981044;28;45367;-63
2023/07/12 09:39:21;;;;;;;5.80;0.80;;;23.80;97.70;;;;;;4980315;28;45128;-62
2023/07/12 09:41:50;;;;;;;1.63;0.77;;;23.70;97.50;;;;;;4980755;28;45405;-62
2023/07/12 09:44:18;;;;;;;1.15;0.73;;;23.70;97.60;;;;;;4980173;28;45205;-62
2023/07/12 09:46:49;;;;;;;1.48;0.70;;;23.80;97.90;;;;;;4980809;28;45167;-63
2023/07/12 09:49:20;;;;;;;4.18;0.80;;;23.80;97.70;;;;;;4979732;28;46305;-63
2023/07/12 09:51:57;;;;;;;3.55;0.80;;;23.80;97.60;;;;;;4977256;28;45152;-63
2023/07/12 09:54:34;;;;;;;1.90;0.75;;;23.80;97.60;;;;;;4979374;28;45170;-63
2023/07/12 09:57:03;;;;;;;1.15;0.60;;;23.80;97.60;;;;;;4980270;28;45295;-62
2023/07/12 09:59:37;;;;;;;1.80;0.80;;;23.70;97.40;;;;;;4979306;28;46769;-63
2023/07/12 10:02:25;;;;;;;1.45;0.50;;;23.80;97.30;;;;;;4996347;28;45164;-63
2023/07/12 10:04:58;;;;;;;1.35;0.70;;;23.80;97.00;;;;;;4975864;28;45091;-63
2023/07/12 10:07:49;;;;;;;1.05;0.50;;;23.80;96.90;;;;;;4979655;28;45326;-63
2023/07/12 10:10:22;;;;;;;2.00;0.60;;;23.80;96.70;;;;;;4979601;28;45280;-62
2023/07/12 10:12:57;;;;;;;3.80;0.80;;;23.80;96.70;;;;;;4979625;28;45193;-64
2023/07/12 10:15:35;;;;;;;0.95;0.60;;;23.80;96.70;;;;;;4980255;28;45116;-64
2023/07/12 10:18:04;;;;;;;1.40;0.70;;;23.80;96.50;;;;;;4979699;28;45477;-63
2023/07/12 10:20:32;;;;;;;1.98;0.70;;;23.80;96.50;;;;;;5002871;28;45442;-63
2023/07/12 10:23:00;;;;;;;0.93;0.43;;;23.80;96.40;;;;;;4979677;28;45340;-64
2023/07/12 10:25:30;;;;;;;1.60;0.50;;;23.80;96.30;;;;;;4979422;28;45244;-62
2023/07/12 10:28:01;;;;;;;1.80;0.60;;;23.80;96.20;;;;;;4979162;28;45276;-62
2023/07/12 10:30:30;;;;;;;2.22;0.57;;;23.90;96.10;;;;;;4978471;28;45247;-63
2023/07/12 10:33:02;;;;;;;0.93;0.60;;;23.90;96.10;;;;;;4979931;28;45113;-62
2023/07/12 10:35:42;;;;;;;1.98;0.68;;;23.90;96.10;;;;;;4980186;28;45223;-63
2023/07/12 10:38:13;;;;;;;2.78;0.80;;;23.90;96.00;;;;;;4979159;28;45197;-63
2023/07/12 10:40:46;;;;;;;2.50;0.55;;;23.80;95.90;;;;;;4969958;28;46383;-64
2023/07/12 10:43:17;;;;;;;0.52;0.40;;;23.90;95.90;;;;;;4978361;28;45295;-64
2023/07/12 10:45:44;;;;;;;0.77;0.52;;;23.90;96.10;;;;;;4981111;28;45489;-63
2023/07/12 10:48:21;;;;;;;1.45;0.52;;;23.90;96.10;;;;;;4980355;28;45231;-63
2023/07/12 10:50:51;;;;;;;1.67;0.50;;;23.80;96.00;;;;;;4985929;28;48766;-63
2023/07/12 10:53:21;;;;;;;0.63;0.50;;;23.90;96.10;;;;;;4981543;27;45102;-62
2023/07/12 10:56:10;;;;;;;1.63;0.60;;;23.90;96.20;;;;;;4982423;28;45240;-62
2023/07/12 10:58:49;;;;;;;1.25;0.60;;;23.80;96.10;;;;;;4981990;28;45302;-63
2023/07/12 11:01:51;;;;;;;0.77;0.45;;;23.80;96.20;;;;;;4999565;28;46845;-63
2023/07/12 11:04:34;;;;;;;2.00;0.50;;;23.80;95.90;;;;;;5009475;28;45300;-63
2023/07/12 11:07:05;;;;;;;3.97;0.70;;;23.90;96.00;;;;;;4978787;28;45355;-62
2023/07/12 11:10:07;;;;;;;0.70;0.50;;;23.90;95.60;;;;;;4975787;28;45304;-64
2023/07/12 11:12:39;;;;;;;0.73;0.50;;;23.90;95.40;;;;;;5038416;28;47423;-63
2023/07/12 11:15:19;;;;;;;0.70;0.50;;;23.90;95.60;;;;;;4984040;28;45291;-63
2023/07/12 11:17:52;;;;;;;0.93;0.40;;;23.90;95.50;;;;;;4975027;28;45339;-63
2023/07/12 11:20:23;;;;;;;1.10;0.50;;;23.90;95.40;;;;;;4973467;28;45094;-63
2023/07/12 11:22:55;;;;;;;1.05;0.50;;;23.90;95.50;;;;;;4980610;28;47461;-62
2023/07/12 11:25:38;;;;;;;1.33;0.65;;;23.90;95.50;;;;;;4978837;28;45199;-63
2023/07/12 11:28:07;;;;;;;1.33;0.40;;;23.90;95.30;;;;;;4977055;28;45260;-63
2023/07/12 11:30:44;;;;;;;1.10;0.50;;;23.90;95.30;;;;;;4978546;28;45144;-62
2023/07/12 11:33:20;;;;;;;1.08;0.63;;;23.90;95.10;;;;;;4972767;28;45431;-63
2023/07/12 11:35:50;;;;;;;2.00;0.70;;;23.90;95.10;;;;;;4977442;28;45202;-63
2023/07/12 11:38:20;;;;;;;0.98;0.57;;;23.90;95.00;;;;;;4980463;28;45278;-64
2023/07/12 11:40:51;;;;;;;2.10;0.50;;;23.90;95.10;;;;;;4981606;28;45137;-63
2023/07/12 11:43:34;;;;;;;0.73;0.40;;;23.90;95.00;;;;;;4981769;28;46639;-63
2023/07/12 11:46:03;;;;;;;0.90;0.57;;;23.90;94.90;;;;;;4981157;28;45095;-63
2023/07/12 11:48:33;;;;;;;0.88;0.60;;;23.90;95.00;;;;;;4982299;28;45205;-63
2023/07/12 11:51:04;;;;;;;1.08;0.50;;;23.90;95.20;;;;;;4981810;28;45314;-64
2023/07/12 11:53:33;;;;;;;1.35;0.50;;;23.90;95.10;;;;;;4979261;28;45137;-64
2023/07/12 11:56:00;;;;;;;1.02;0.60;;;23.90;95.10;;;;;;4979541;28;45291;-64
2023/07/12 11:58:27;;;;;;;0.75;0.40;;;23.90;95.00;;;;;;4980257;28;45314;-65
2023/07/12 12:00:56;;;;;;;1.02;0.47;;;23.90;95.00;;;;;;4998693;28;45199;-64
2023/07/12 12:03:23;;;;;;;1.38;0.50;;;23.90;95.00;;;;;;4978989;28;46523;-63
2023/07/12 12:05:50;;;;;;;1.35;0.50;;;24.00;94.90;;;;;;4970063;28;45230;-63
2023/07/12 12:08:19;;;;;;;1.98;0.47;;;24.00;94.50;;;;;;4973746;28;45243;-64
2023/07/12 12:10:49;;;;;;;1.23;0.68;;;24.00;94.00;;;;;;4980870;28;45193;-64
2023/07/12 12:13:24;;;;;;;0.95;0.52;;;24.00;94.10;;;;;;4980727;28;46921;-64
2023/07/12 12:15:58;;;;;;;0.82;0.47;;;24.00;94.00;;;;;;4971628;28;45251;-65
2023/07/12 12:18:25;;;;;;;0.90;0.55;;;24.00;94.00;;;;;;4973402;28;45311;-63
2023/07/12 12:20:53;;;;;;;1.92;0.65;;;24.00;94.10;;;;;;4979276;28;45388;-64
2023/07/12 12:23:22;;;;;;;1.20;0.50;;;24.00;94.00;;;;;;4972613;28;48086;-63
2023/07/12 12:25:52;;;;;;;1.13;0.47;;;24.10;94.20;;;;;;4976676;28;45121;-63
2023/07/12 12:28:25;;;;;;;2.95;0.52;;;24.00;94.20;;;;;;4982402;28;45188;-64
2023/07/12 12:30:59;;;;;;;6.25;0.93;;;24.00;94.20;;;;;;4975997;28;45111;-65
2023/07/12 12:33:29;;;;;;;3.50;0.73;;;24.10;94.80;;;;;;4980816;28;47509;-64
2023/07/12 12:36:00;;;;;;;6.10;0.60;;;24.00;94.60;;;;;;4981142;28;45298;-65
2023/07/12 12:38:31;;;;;;;3.45;0.70;;;24.00;94.50;;;;;;4979032;28;45270;-64
2023/07/12 12:41:12;;;;;;;2.55;0.70;;;24.00;94.10;;;;;;4980463;28;45414;-64
2023/07/12 12:43:57;;;;;;;1.20;0.70;;;23.90;93.90;;;;;;4980814;28;45282;-65
2023/07/12 12:46:24;;;;;;;2.42;0.70;;;23.90;93.70;;;;;;4978565;28;45607;-64
2023/07/12 12:48:51;;;;;;;4.13;0.60;;;23.90;93.70;;;;;;4980795;28;45298;-64
2023/07/12 12:51:18;;;;;;;3.05;0.75;;;23.90;93.70;;;;;;4981304;28;45250;-65
2023/07/12 12:53:45;;;;;;;2.95;0.50;;;23.90;93.60;;;;;;4981218;28;46569;-64
2023/07/12 12:56:14;;;;;;;1.30;0.68;;;23.90;93.50;;;;;;4981100;28;45271;-64
2023/07/12 12:58:42;;;;;;;1.38;0.60;;;23.90;93.30;;;;;;4979760;28;45164;-64